Stephens, Missouri
Current Conditions -  °F | °C
As of 6:54 PM on Thursday 18 Dec 2014 (Local Time) from KCOU Reporting Station
Overcast Overcast  
Wind Chill: 26°   Ceiling: 700
Heat Index: 32°   Visibility: 7mi
Dew Point: 30°   Wind: 6mph
Humidity: 92%   Direction: 70°ENE
Pressure: 30.24"   Gusts: NA
Location:  39.0235°N, 92.2896°W
Report Text: KCOU 190054Z 07005KT 7SM OVC007 00/M01 A3024 RMK AO2 SLP248 T00001011
Loading
Personal Weather Stations






























Interactive Weather Map New forecast layout! Learn more

10-Day Weather Forecast

Advertisements
Track Severe Weather on mobile